createdAt,value
2023-03-10T00:00:36.759Z,98255.84
2023-03-10T00:03:03.313Z,98260.66
2023-03-10T00:05:29.818Z,98265.00
2023-03-10T00:07:56.659Z,98258.44
2023-03-10T00:10:23.132Z,98264.19
2023-03-10T00:12:52.501Z,98252.56
2023-03-10T00:15:18.967Z,98252.78
2023-03-10T00:17:45.480Z,98241.91
2023-03-10T00:20:12.754Z,98243.06
2023-03-10T00:22:41.534Z,98240.34
2023-03-10T00:25:09.649Z,98230.56
2023-03-10T00:27:36.096Z,98233.53
2023-03-10T00:30:02.950Z,98234.59
2023-03-10T00:32:29.409Z,98231.88
2023-03-10T00:34:55.925Z,98232.72
2023-03-10T00:37:22.599Z,98231.88
2023-03-10T00:39:52.791Z,98229.75
2023-03-10T00:42:19.842Z,98231.41
2023-03-10T00:44:46.950Z,98239.28
2023-03-10T00:47:13.396Z,98239.88
2023-03-10T00:49:39.844Z,98243.13
2023-03-10T00:52:06.404Z,98239.63
2023-03-10T00:54:32.851Z,98242.06
2023-03-10T00:56:59.251Z,98246.66
2023-03-10T00:59:25.662Z,98247.16
2023-03-10T01:01:52.224Z,98242.81
2023-03-10T01:04:19.837Z,98229.75
2023-03-10T01:06:47.660Z,98238.53
2023-03-10T01:09:14.603Z,98220.59
2023-03-10T01:11:41.317Z,98230.47
2023-03-10T01:14:12.372Z,98231.06
2023-03-10T01:16:38.852Z,98231.06
2023-03-10T01:19:05.330Z,98217.50
2023-03-10T01:21:34.913Z,98225.66
2023-03-10T01:24:01.960Z,98219.75
2023-03-10T01:26:29.425Z,98222.75
2023-03-10T01:28:55.892Z,98227.13
2023-03-10T01:31:22.804Z,98209.81
2023-03-10T01:33:49.476Z,98211.69
2023-03-10T01:36:22.158Z,98209.25
2023-03-10T01:38:49.269Z,98212.47
2023-03-10T01:41:17.143Z,98213.28
2023-03-10T01:43:46.319Z,98208.94
2023-03-10T01:46:35.719Z,98209.19
2023-03-10T01:49:06.137Z,98213.50
2023-03-10T01:51:35.569Z,98217.31
2023-03-10T01:54:03.948Z,98210.03
2023-03-10T01:56:30.872Z,98211.66
2023-03-10T01:58:57.390Z,98208.69
2023-03-10T02:01:24.481Z,98206.00
2023-03-10T02:04:00.124Z,98206.00
2023-03-10T02:06:26.989Z,98214.34
2023-03-10T02:08:57.845Z,98183.22
2023-03-10T02:11:24.602Z,98221.38
2023-03-10T02:13:51.413Z,98220.34
2023-03-10T02:16:18.229Z,98220.59
2023-03-10T02:18:46.761Z,98224.09
2023-03-10T02:21:21.304Z,98216.47
2023-03-10T02:24:02.746Z,98226.78
2023-03-10T02:26:41.024Z,98228.94
2023-03-10T02:29:16.662Z,98220.25
2023-03-10T02:31:44.046Z,98238.59
2023-03-10T02:34:11.551Z,98226.34
2023-03-10T02:36:38.026Z,98236.91
2023-03-10T02:39:04.547Z,98229.75
2023-03-10T02:41:36.202Z,98216.16
2023-03-10T02:44:06.791Z,98215.25
2023-03-10T02:46:33.236Z,98203.63
2023-03-10T02:49:02.022Z,98206.31
2023-03-10T02:51:34.467Z,98211.72
2023-03-10T02:54:01.646Z,98208.47
2023-03-10T02:56:29.687Z,98206.84
2023-03-10T02:58:56.176Z,98205.78
2023-03-10T03:01:22.734Z,98207.66
2023-03-10T03:03:49.427Z,98205.78
2023-03-10T03:06:15.929Z,98200.03
2023-03-10T03:08:42.448Z,98201.69
2023-03-10T03:11:09.378Z,98194.38
2023-03-10T03:13:36.091Z,98185.00
2023-03-10T03:16:05.811Z,98199.28
2023-03-10T03:18:32.285Z,98187.84
2023-03-10T03:20:58.707Z,98203.81
2023-03-10T03:23:25.093Z,98204.56
2023-03-10T03:25:51.637Z,98204.06
2023-03-10T03:28:18.109Z,98208.81
2023-03-10T03:30:45.072Z,98209.16
2023-03-10T03:33:11.674Z,98207.75
2023-03-10T03:35:38.416Z,98202.34
2023-03-10T03:38:05.252Z,98194.47
2023-03-10T03:40:34.757Z,98200.13
2023-03-10T03:43:01.514Z,98207.59
2023-03-10T03:45:30.362Z,98197.53
2023-03-10T03:47:56.839Z,98190.81
2023-03-10T03:50:23.949Z,98194.75
2023-03-10T03:52:50.536Z,98197.75
2023-03-10T03:55:18.581Z,98186.06
2023-03-10T03:57:45.820Z,98179.38
2023-03-10T04:00:18.333Z,98177.22
2023-03-10T04:02:44.870Z,98177.47
2023-03-10T04:05:11.695Z,98177.72
2023-03-10T04:07:40.211Z,98170.94
2023-03-10T04:10:08.934Z,98165.28
2023-03-10T04:12:35.426Z,98177.72
2023-03-10T04:15:01.879Z,98178.84
2023-03-10T04:17:28.369Z,98176.09
2023-03-10T04:20:06.751Z,98174.22
2023-03-10T04:22:34.413Z,98173.06
2023-03-10T04:25:00.880Z,98171.59
2023-03-10T04:27:27.311Z,98166.09
2023-03-10T04:29:53.938Z,98158.75
2023-03-10T04:32:20.504Z,98150.09
2023-03-10T04:34:47.000Z,98142.72
2023-03-10T04:37:13.534Z,98145.19
2023-03-10T04:39:40.031Z,98135.34
2023-03-10T04:42:06.999Z,98139.13
2023-03-10T04:44:33.587Z,98139.44
2023-03-10T04:47:00.268Z,98127.97
2023-03-10T04:49:27.143Z,98127.97
2023-03-10T04:51:53.681Z,98124.72
2023-03-10T04:54:20.162Z,98127.50
2023-03-10T04:56:46.744Z,98133.53
2023-03-10T04:59:13.522Z,98129.78
2023-03-10T05:01:40.088Z,98125.06
2023-03-10T05:04:06.704Z,98122.41
2023-03-10T05:06:33.280Z,98126.50
2023-03-10T05:09:03.022Z,98120.59
2023-03-10T05:11:29.558Z,98125.69
2023-03-10T05:13:55.975Z,98113.56
2023-03-10T05:16:23.566Z,98108.16
2023-03-10T05:18:50.084Z,98109.78
2023-03-10T05:21:16.844Z,98109.50
2023-03-10T05:23:43.691Z,98109.00
2023-03-10T05:26:11.728Z,98112.75
2023-03-10T05:28:38.382Z,98096.88
2023-03-10T05:31:10.152Z,98091.47
2023-03-10T05:33:36.694Z,98104.16
2023-03-10T05:36:08.036Z,98094.09
2023-03-10T05:38:35.354Z,98097.63
2023-03-10T05:41:02.456Z,98110.38
2023-03-10T05:43:28.890Z,98102.78
2023-03-10T05:45:59.193Z,98103.84
2023-03-10T05:48:26.389Z,98104.81
2023-03-10T05:51:03.660Z,98108.31
2023-03-10T05:53:30.882Z,98117.50
2023-03-10T05:55:58.335Z,98103.19
2023-03-10T05:58:26.114Z,98107.28
2023-03-10T06:00:52.792Z,98108.31
2023-03-10T06:03:19.962Z,98109.97
2023-03-10T06:05:46.505Z,98112.44
2023-03-10T06:08:12.981Z,98107.84
2023-03-10T06:10:39.464Z,98098.69
2023-03-10T06:13:05.964Z,98101.63
2023-03-10T06:15:32.619Z,98112.50
2023-03-10T06:17:59.325Z,98109.00
2023-03-10T06:20:26.053Z,98107.94
2023-03-10T06:22:53.310Z,98101.44
2023-03-10T06:25:20.302Z,98117.66
2023-03-10T06:27:46.970Z,98106.06
2023-03-10T06:30:14.772Z,98110.13
2023-03-10T06:32:41.256Z,98128.31
2023-03-10T06:35:08.068Z,98106.06
2023-03-10T06:37:34.624Z,98125.84
2023-03-10T06:40:01.034Z,98119.63
2023-03-10T06:42:27.440Z,98122.13
2023-03-10T06:44:54.833Z,98117.25
2023-03-10T06:47:21.259Z,98122.13
2023-03-10T06:49:47.693Z,98115.84
2023-03-10T06:52:14.124Z,98122.56
2023-03-10T06:54:40.534Z,98117.59
2023-03-10T06:57:07.044Z,98125.75
2023-03-10T06:59:33.537Z,98127.97
2023-03-10T07:02:00.003Z,98124.59
2023-03-10T07:04:26.499Z,98116.72
2023-03-10T07:06:52.960Z,98106.44
2023-03-10T07:09:19.445Z,98116.66
2023-03-10T07:11:45.881Z,98119.38
2023-03-10T07:14:12.357Z,98118.25
2023-03-10T07:16:39.693Z,98119.28
2023-03-10T07:19:06.386Z,98117.16
2023-03-10T07:21:32.924Z,98119.28
2023-03-10T07:23:59.378Z,98133.06
2023-03-10T07:26:25.936Z,98138.78
2023-03-10T07:28:52.860Z,98142.84
2023-03-10T07:31:19.496Z,98150.16
2023-03-10T07:33:46.189Z,98149.56
2023-03-10T07:36:15.130Z,98139.91
2023-03-10T07:38:42.246Z,98137.94
2023-03-10T07:41:10.782Z,98138.78
2023-03-10T07:43:37.591Z,98149.91
2023-03-10T07:46:09.115Z,98151.28
2023-03-10T07:48:35.558Z,98154.00
2023-03-10T07:51:02.100Z,98156.94
2023-03-10T07:53:29.591Z,98160.97
2023-03-10T07:55:56.150Z,98156.59
2023-03-10T07:58:23.353Z,98148.09
2023-03-10T08:00:57.055Z,98143.72
2023-03-10T08:03:25.165Z,98142.06
2023-03-10T08:05:51.749Z,98150.88
2023-03-10T08:08:18.682Z,98150.41
2023-03-10T08:10:45.201Z,98161.19
2023-03-10T08:13:11.860Z,98165.63
2023-03-10T08:15:39.415Z,98158.34
2023-03-10T08:18:07.642Z,98158.31
2023-03-10T08:20:35.745Z,98157.59
2023-03-10T08:23:03.840Z,98164.25
2023-03-10T08:25:30.482Z,98168.50
2023-03-10T08:27:56.902Z,98161.97
2023-03-10T08:30:23.596Z,98156.31
2023-03-10T08:32:50.097Z,98159.31
2023-03-10T08:35:16.867Z,98148.66
2023-03-10T08:37:43.952Z,98148.25
2023-03-10T08:40:13.612Z,98165.34
2023-03-10T08:42:40.158Z,98159.28
2023-03-10T08:45:08.811Z,98164.06
2023-03-10T08:47:35.979Z,98152.81
2023-03-10T08:50:02.681Z,98165.16
2023-03-10T08:52:29.117Z,98154.19
2023-03-10T08:54:56.330Z,98156.69
2023-03-10T08:57:24.241Z,98160.81
2023-03-10T08:59:51.582Z,98161.19
2023-03-10T09:02:20.423Z,98151.53
2023-03-10T09:04:47.117Z,98145.59
2023-03-10T09:07:13.577Z,98157.22
2023-03-10T09:09:40.058Z,98164.84
2023-03-10T09:12:08.816Z,98149.88
2023-03-10T09:14:36.534Z,98157.56
2023-03-10T09:17:03.767Z,98167.94
2023-03-10T09:19:30.300Z,98167.03
2023-03-10T09:21:57.514Z,98172.78
2023-03-10T09:24:25.295Z,98169.00
2023-03-10T09:26:51.839Z,98177.97
2023-03-10T09:29:18.600Z,98175.59
2023-03-10T09:31:46.536Z,98179.13
2023-03-10T09:34:13.720Z,98187.28
2023-03-10T09:36:40.242Z,98178.63
2023-03-10T09:39:06.732Z,98176.44
2023-03-10T09:41:48.679Z,98176.44
2023-03-10T09:44:24.051Z,98179.41
2023-03-10T09:46:53.091Z,98180.53
2023-03-10T09:49:30.159Z,98185.72
2023-03-10T09:51:56.844Z,98191.19
2023-03-10T09:55:06.039Z,98177.88
2023-03-10T09:57:33.474Z,98179.22
2023-03-10T10:00:08.620Z,98179.00
2023-03-10T10:02:42.315Z,98177.16
2023-03-10T10:05:35.733Z,98170.75
2023-03-10T10:08:14.478Z,98158.59
2023-03-10T10:10:42.260Z,98176.53
2023-03-10T10:13:14.950Z,98180.66
2023-03-10T10:15:51.308Z,98180.38
2023-03-10T10:18:41.524Z,98168.75
2023-03-10T10:21:28.117Z,98185.66
2023-03-10T10:23:59.232Z,98170.19
2023-03-10T10:26:27.475Z,98174.78
2023-03-10T10:28:58.695Z,98181.34
2023-03-10T10:31:28.911Z,98179.69
2023-03-10T10:34:00.368Z,98181.53
2023-03-10T10:36:46.806Z,98183.97
2023-03-10T10:39:37.031Z,98179.06
2023-03-10T10:42:27.007Z,98175.22
2023-03-10T10:44:56.418Z,98185.50
2023-03-10T10:47:30.116Z,98181.97
2023-03-10T10:50:33.508Z,98170.22
2023-03-10T10:53:20.863Z,98186.50
2023-03-10T10:56:03.886Z,98179.94
2023-03-10T10:58:36.911Z,98186.97
2023-03-10T11:01:06.870Z,98173.59
2023-03-10T11:03:34.747Z,98177.16
2023-03-10T11:06:12.260Z,98186.38
2023-03-10T11:08:40.627Z,98186.59
2023-03-10T11:11:24.439Z,98187.94
2023-03-10T11:14:10.073Z,98186.81
2023-03-10T11:17:03.740Z,98181.34
2023-03-10T11:19:33.178Z,98170.69
2023-03-10T11:22:17.839Z,98178.63
2023-03-10T11:24:55.879Z,98172.13
2023-03-10T11:27:37.498Z,98171.00
2023-03-10T11:30:19.807Z,98183.97
2023-03-10T11:32:48.967Z,98181.19
2023-03-10T11:35:31.864Z,98176.16
2023-03-10T11:38:16.372Z,98176.06
2023-03-10T11:40:56.397Z,98183.59
2023-03-10T11:43:38.036Z,98180.25
2023-03-10T11:46:23.334Z,98180.16
2023-03-10T11:49:12.215Z,98183.41
2023-03-10T11:51:50.464Z,98181.91
2023-03-10T11:54:28.668Z,98185.31
2023-03-10T11:56:56.038Z,98181.00
2023-03-10T11:59:25.265Z,98180.88
2023-03-10T12:02:06.016Z,98172.94
2023-03-10T12:04:56.958Z,98161.59
2023-03-10T12:07:37.884Z,98170.34
2023-03-10T12:10:15.271Z,98166.53
2023-03-10T12:12:47.454Z,98156.03
2023-03-10T12:15:19.253Z,98140.34
2023-03-10T12:17:50.802Z,98139.91
2023-03-10T12:20:17.407Z,98133.34
2023-03-10T12:22:51.496Z,98136.09
2023-03-10T12:25:30.247Z,98132.56
2023-03-10T12:28:20.611Z,98133.06
2023-03-10T12:31:21.015Z,98130.00
2023-03-10T12:33:50.617Z,98118.41
2023-03-10T12:36:27.459Z,98118.41
2023-03-10T12:39:28.416Z,98117.00
2023-03-10T12:41:56.549Z,98122.72
2023-03-10T12:44:55.710Z,98129.31
2023-03-10T12:47:29.439Z,98115.72
2023-03-10T12:50:16.254Z,98115.53
2023-03-10T12:52:44.960Z,98107.97
2023-03-10T12:55:28.601Z,98095.28
2023-03-10T12:57:55.075Z,98088.09
2023-03-10T13:00:35.382Z,98095.78
2023-03-10T13:03:11.025Z,98088.47
2023-03-10T13:05:41.325Z,98089.84
2023-03-10T13:08:19.970Z,98088.19
2023-03-10T13:10:46.598Z,98087.56
2023-03-10T13:13:16.606Z,98088.56
2023-03-10T13:15:43.809Z,98091.72
2023-03-10T13:18:17.503Z,98098.72
2023-03-10T13:20:45.463Z,98092.97
2023-03-10T13:23:20.096Z,98100.31
2023-03-10T13:25:54.365Z,98093.06
2023-03-10T13:28:21.019Z,98073.25
2023-03-10T13:30:47.505Z,98078.41
2023-03-10T13:33:22.821Z,98078.19
2023-03-10T13:35:51.429Z,98078.25
2023-03-10T13:38:24.507Z,98072.06
2023-03-10T13:40:56.927Z,98086.63
2023-03-10T13:43:35.041Z,98081.72
2023-03-10T13:46:03.310Z,98085.50
2023-03-10T13:48:32.188Z,98094.84
2023-03-10T13:51:06.250Z,98115.44
2023-03-10T13:53:32.777Z,98119.44
2023-03-10T13:55:59.258Z,98121.59
2023-03-10T13:58:26.388Z,98121.13
2023-03-10T14:00:56.271Z,98125.25
2023-03-10T14:03:23.085Z,98132.59
2023-03-10T14:05:49.849Z,98153.50
2023-03-10T14:08:30.944Z,98162.19
2023-03-10T14:11:35.377Z,98170.41
2023-03-10T14:14:04.791Z,98179.97
2023-03-10T14:16:49.619Z,98173.34
2023-03-10T14:19:43.942Z,98182.75
2023-03-10T14:22:30.954Z,98193.91
2023-03-10T14:24:59.679Z,98183.97
2023-03-10T14:27:27.150Z,98199.63
2023-03-10T14:29:56.637Z,98213.16
2023-03-10T14:32:23.811Z,98210.63
2023-03-10T14:34:50.389Z,98195.66
2023-03-10T14:37:17.236Z,98231.56
2023-03-10T14:39:43.669Z,98224.78
2023-03-10T14:42:24.426Z,98237.78
2023-03-10T14:44:51.285Z,98228.03
2023-03-10T14:47:18.444Z,98222.25
2023-03-10T14:49:45.027Z,98216.34
2023-03-10T14:52:15.699Z,98235.25
2023-03-10T14:54:42.684Z,98218.47
2023-03-10T14:57:10.520Z,98238.09
2023-03-10T14:59:36.996Z,98239.81
2023-03-10T15:02:15.249Z,98220.19
2023-03-10T15:04:41.749Z,98226.78
2023-03-10T15:07:10.293Z,98243.69
2023-03-10T15:09:36.772Z,98258.94
2023-03-10T15:12:03.815Z,98255.31
2023-03-10T15:14:30.575Z,98245.72
2023-03-10T15:16:57.106Z,98263.16
2023-03-10T15:19:26.037Z,98249.72
2023-03-10T15:21:53.363Z,98276.69
2023-03-10T15:24:20.004Z,98276.22
2023-03-10T15:26:48.104Z,98291.59
2023-03-10T15:29:16.335Z,98294.41
2023-03-10T15:31:43.200Z,98306.34
2023-03-10T15:34:09.856Z,98286.44
2023-03-10T15:36:37.002Z,98293.94
2023-03-10T15:39:04.611Z,98286.22
2023-03-10T15:41:38.906Z,98272.84
2023-03-10T15:44:07.194Z,98277.19
2023-03-10T15:46:33.805Z,98283.63
2023-03-10T15:49:02.086Z,98274.00
2023-03-10T15:51:29.253Z,98275.78
2023-03-10T15:53:55.690Z,98284.56
2023-03-10T15:56:22.176Z,98281.75
2023-03-10T15:58:48.998Z,98277.78
2023-03-10T16:01:17.946Z,98297.00
2023-03-10T16:03:44.429Z,98304.72
2023-03-10T16:06:12.396Z,98302.16
2023-03-10T16:08:39.809Z,98300.75
2023-03-10T16:11:14.950Z,98303.44
2023-03-10T16:13:41.484Z,98291.13
2023-03-10T16:16:09.046Z,98312.94
2023-03-10T16:18:35.764Z,98321.22
2023-03-10T16:21:03.653Z,98322.72
2023-03-10T16:23:31.980Z,98330.22
2023-03-10T16:26:15.116Z,98351.88
2023-03-10T16:28:44.117Z,98350.91
2023-03-10T16:31:12.771Z,98342.09
2023-03-10T16:33:40.059Z,98353.78
2023-03-10T16:36:08.825Z,98379.72
2023-03-10T16:38:36.159Z,98401.75
2023-03-10T16:41:03.496Z,98442.50
2023-03-10T16:43:31.964Z,98460.91
2023-03-10T16:46:25.919Z,98537.97
2023-03-10T16:48:54.274Z,98560.53
2023-03-10T16:51:32.797Z,98596.03
2023-03-10T16:54:05.139Z,98640.28
2023-03-10T16:56:32.611Z,98627.31
2023-03-10T16:58:59.082Z,98685.69
2023-03-10T17:01:25.568Z,98704.25
2023-03-10T17:03:53.682Z,98730.41
2023-03-10T17:06:26.312Z,98727.28
2023-03-10T17:08:53.803Z,98757.31
2023-03-10T17:11:23.509Z,98770.66
2023-03-10T17:13:53.206Z,98800.59
2023-03-10T17:16:24.408Z,98820.28
2023-03-10T17:18:51.279Z,98830.28
2023-03-10T17:21:20.600Z,98840.38
2023-03-10T17:23:47.422Z,98870.41
2023-03-10T17:26:14.402Z,98867.25
2023-03-10T17:28:42.338Z,98890.31
2023-03-10T17:31:12.452Z,98897.28
2023-03-10T17:33:39.025Z,98889.94
2023-03-10T17:36:13.847Z,98916.75
2023-03-10T17:38:41.047Z,98924.97
2023-03-10T17:41:10.109Z,98950.59
2023-03-10T17:43:37.700Z,98939.44
2023-03-10T17:46:06.929Z,98968.50
2023-03-10T17:48:33.384Z,98967.94
2023-03-10T17:51:00.360Z,98982.59
2023-03-10T17:53:27.942Z,98999.72
2023-03-10T17:55:54.504Z,99029.78
2023-03-10T17:58:21.530Z,99056.34
2023-03-10T18:00:48.925Z,99035.69
2023-03-10T18:03:16.490Z,99092.34
2023-03-10T18:05:44.169Z,99080.09
2023-03-10T18:08:11.915Z,99105.63
2023-03-10T18:10:39.027Z,99124.91
2023-03-10T18:13:08.789Z,99133.31
2023-03-10T18:15:36.157Z,99136.75
2023-03-10T18:18:02.701Z,99153.72
2023-03-10T18:20:34.174Z,99168.69
2023-03-10T18:23:00.948Z,99164.19
2023-03-10T18:25:27.482Z,99208.63
2023-03-10T18:27:54.000Z,99215.09
2023-03-10T18:30:20.534Z,99225.19
2023-03-10T18:32:47.089Z,99242.16
2023-03-10T18:35:13.631Z,99243.19
2023-03-10T18:37:40.072Z,99260.34
2023-03-10T18:40:08.895Z,99277.47
2023-03-10T18:42:35.312Z,99284.69
2023-03-10T18:45:01.840Z,99294.00
2023-03-10T18:47:28.255Z,99312.19
2023-03-10T18:49:54.711Z,99329.53
2023-03-10T18:52:21.186Z,99333.56
2023-03-10T18:54:48.490Z,99327.66
2023-03-10T18:57:15.261Z,99345.03
2023-03-10T18:59:42.499Z,99365.25
2023-03-10T19:02:14.240Z,99370.22
2023-03-10T19:04:41.187Z,99374.59
2023-03-10T19:07:08.147Z,99383.22
2023-03-10T19:09:35.484Z,99385.78
2023-03-10T19:12:01.967Z,99381.25
2023-03-10T19:14:28.419Z,99400.41
2023-03-10T19:16:55.090Z,99395.63
2023-03-10T19:19:21.639Z,99393.97
2023-03-10T19:21:49.441Z,99404.84
2023-03-10T19:24:15.962Z,99424.03
2023-03-10T19:26:43.336Z,99426.38
2023-03-10T19:29:09.986Z,99426.03
2023-03-10T19:31:36.515Z,99433.84
2023-03-10T19:34:03.261Z,99441.38
2023-03-10T19:36:29.773Z,99458.38
2023-03-10T19:38:56.375Z,99449.88
2023-03-10T19:41:23.485Z,99473.25
2023-03-10T19:43:51.024Z,99493.47
2023-03-10T19:46:19.171Z,99484.13
2023-03-10T19:48:45.636Z,99508.63
2023-03-10T19:51:21.490Z,99510.81
2023-03-10T19:53:49.916Z,99525.53
2023-03-10T19:56:17.792Z,99523.34
2023-03-10T19:58:46.528Z,99515.34
2023-03-10T20:01:14.904Z,99554.25
2023-03-10T20:03:41.874Z,99540.88
2023-03-10T20:06:08.918Z,99535.34
2023-03-10T20:08:36.002Z,99553.06
2023-03-10T20:11:02.829Z,99569.59
2023-03-10T20:13:29.747Z,99570.91
2023-03-10T20:15:57.580Z,99588.25
2023-03-10T20:18:24.221Z,99588.75
2023-03-10T20:20:51.129Z,99586.91
2023-03-10T20:23:17.894Z,99599.44
2023-03-10T20:25:45.481Z,99599.91
2023-03-10T20:28:12.602Z,99600.25
2023-03-10T20:30:39.836Z,99603.94
2023-03-10T20:33:06.461Z,99613.94
2023-03-10T20:35:34.086Z,99610.97
2023-03-10T20:38:01.829Z,99621.78
2023-03-10T20:40:28.604Z,99629.31
2023-03-10T20:42:56.746Z,99634.97
2023-03-10T20:45:23.434Z,99627.31
2023-03-10T20:47:50.156Z,99639.34
2023-03-10T20:50:17.365Z,99652.66
2023-03-10T20:52:44.407Z,99660.34
2023-03-10T20:55:20.115Z,99660.03
2023-03-10T20:57:47.953Z,99666.06
2023-03-10T21:00:18.720Z,99667.50
2023-03-10T21:02:47.030Z,99671.84
2023-03-10T21:05:14.444Z,99678.00
2023-03-10T21:07:40.942Z,99674.28
2023-03-10T21:10:09.391Z,99679.63
2023-03-10T21:12:35.787Z,99689.66
2023-03-10T21:15:04.193Z,99682.34
2023-03-10T21:17:30.623Z,99705.69
2023-03-10T21:20:04.181Z,99700.50
2023-03-10T21:22:35.049Z,99720.34
2023-03-10T21:25:03.712Z,99718.84
2023-03-10T21:27:30.815Z,99730.34
2023-03-10T21:29:59.215Z,99718.69
2023-03-10T21:32:27.002Z,99730.41
2023-03-10T21:34:53.539Z,99717.34
2023-03-10T21:37:20.545Z,99726.72
2023-03-10T21:39:48.007Z,99726.00
2023-03-10T21:42:15.227Z,99741.22
2023-03-10T21:44:42.027Z,99734.16
2023-03-10T21:47:08.452Z,99747.34
2023-03-10T21:49:34.905Z,99746.50
2023-03-10T21:52:01.442Z,99754.38
2023-03-10T21:54:28.673Z,99753.41
2023-03-10T21:56:55.221Z,99777.41
2023-03-10T21:59:21.649Z,99780.72
2023-03-10T22:01:48.177Z,99781.41
2023-03-10T22:04:14.942Z,99798.56
2023-03-10T22:06:41.578Z,99777.00
2023-03-10T22:09:08.034Z,99794.59
2023-03-10T22:11:36.034Z,99800.56
2023-03-10T22:14:02.517Z,99809.03
2023-03-10T22:16:28.981Z,99810.66
2023-03-10T22:18:55.494Z,99819.19
2023-03-10T22:21:21.962Z,99814.06
2023-03-10T22:23:48.547Z,99829.38
2023-03-10T22:26:15.135Z,99821.38
2023-03-10T22:28:41.605Z,99838.97
2023-03-10T22:31:09.592Z,99842.00
2023-03-10T22:33:36.454Z,99837.44
2023-03-10T22:36:09.553Z,99856.66
2023-03-10T22:38:36.032Z,99852.97
2023-03-10T22:41:02.694Z,99865.00
2023-03-10T22:43:29.183Z,99861.06
2023-03-10T22:45:59.126Z,99859.06
2023-03-10T22:48:25.605Z,99868.75
2023-03-10T22:50:52.086Z,99878.78
2023-03-10T22:53:20.871Z,99872.00
2023-03-10T22:55:48.346Z,99879.63
2023-03-10T22:58:16.179Z,99875.06
2023-03-10T23:00:42.905Z,99882.91
2023-03-10T23:03:11.637Z,99879.09
2023-03-10T23:05:38.376Z,99893.91
2023-03-10T23:08:05.416Z,99900.81
2023-03-10T23:10:33.895Z,99886.84
2023-03-10T23:13:03.232Z,99904.69
2023-03-10T23:15:31.468Z,99906.31
2023-03-10T23:17:58.073Z,99897.16
2023-03-10T23:20:27.562Z,99911.50
2023-03-10T23:22:55.568Z,99916.38
2023-03-10T23:25:28.774Z,99915.69
2023-03-10T23:27:56.092Z,99903.84
2023-03-10T23:30:22.662Z,99919.63
2023-03-10T23:32:50.458Z,99905.72
2023-03-10T23:35:23.922Z,99925.94
2023-03-10T23:37:50.479Z,99933.59
2023-03-10T23:40:19.449Z,99926.59
2023-03-10T23:42:46.298Z,99936.31
2023-03-10T23:45:15.992Z,99944.16
2023-03-10T23:47:42.763Z,99943.19
2023-03-10T23:50:15.533Z,99948.38
2023-03-10T23:52:41.951Z,99946.31
2023-03-10T23:55:11.575Z,99939.97
2023-03-10T23:57:37.989Z,99971.41
